Time;durP1;ratioP1;P1;durP2;ratioP2;P2;SDS_P1;SDS_P2;PMS_P1;PMS_P2;Temp;Humidity;BMP_temperature;BMP_pressure;BME280_temperature;BME280_humidity;BME280_pressure;Samples;Min_cycle;Max_cycle;Signal;HPM_P1;HPM_P2
2021/03/17 00:00:24;;;;;;;8.67;7.87;;;9.10;99.90;;;;;;5092442;28;20432;-77
2021/03/17 00:02:50;;;;;;;8.33;6.87;;;9.10;99.90;;;;;;5092094;28;20176;-77
2021/03/17 00:05:22;;;;;;;8.47;6.93;;;9.20;99.90;;;;;;5073683;28;20516;-77
2021/03/17 00:07:47;;;;;;;8.57;7.60;;;9.20;99.90;;;;;;5090927;28;20180;-77
2021/03/17 00:10:14;;;;;;;7.27;6.57;;;9.20;99.90;;;;;;5092739;28;20494;-77
2021/03/17 00:12:40;;;;;;;8.00;7.17;;;9.20;99.90;;;;;;5074562;28;20176;-77
2021/03/17 00:15:06;;;;;;;7.80;6.70;;;9.20;99.80;;;;;;5091749;28;20448;-78
2021/03/17 00:17:32;;;;;;;9.93;6.83;;;9.20;99.70;;;;;;5092071;28;20460;-78
2021/03/17 00:19:58;;;;;;;10.43;6.60;;;9.20;99.90;;;;;;5091533;28;20395;-78
2021/03/17 00:22:23;;;;;;;6.63;6.10;;;9.20;99.70;;;;;;5091613;28;20176;-77
2021/03/17 00:24:49;;;;;;;7.63;6.10;;;9.30;99.70;;;;;;5091610;28;20209;-78
2021/03/17 00:27:15;;;;;;;7.67;6.30;;;9.30;99.70;;;;;;5092418;28;20608;-77
2021/03/17 00:29:40;;;;;;;10.20;5.70;;;9.30;99.60;;;;;;5092289;28;20267;-77
2021/03/17 00:32:06;;;;;;;5.70;5.17;;;9.30;99.50;;;;;;5091465;28;20175;-78
2021/03/17 00:34:32;;;;;;;7.27;6.10;;;9.20;99.30;;;;;;5092551;28;20266;-78
2021/03/17 00:36:58;;;;;;;6.70;6.10;;;9.30;99.30;;;;;;5091299;28;20178;-78
2021/03/17 00:39:23;;;;;;;7.90;5.67;;;9.20;99.30;;;;;;5091966;28;20502;-78
2021/03/17 00:41:49;;;;;;;5.63;5.23;;;9.20;99.30;;;;;;5090950;28;20172;-78
2021/03/17 00:44:15;;;;;;;6.00;5.50;;;9.20;99.30;;;;;;5092231;28;20596;-78
2021/03/17 00:46:42;;;;;;;5.90;5.40;;;9.20;99.20;;;;;;5074180;28;20219;-78
2021/03/17 00:49:08;;;;;;;7.60;5.50;;;9.20;99.30;;;;;;5073302;28;20436;-78
2021/03/17 00:51:34;;;;;;;6.60;5.90;;;9.20;99.20;;;;;;5092318;28;20875;-78
2021/03/17 00:53:59;;;;;;;5.43;4.90;;;9.20;99.30;;;;;;5091543;28;20169;-77
2021/03/17 00:56:25;;;;;;;7.23;5.80;;;9.10;99.50;;;;;;5092249;28;20635;-78
2021/03/17 00:58:50;;;;;;;5.93;5.33;;;9.10;99.30;;;;;;5091039;28;20204;-77
2021/03/17 01:01:16;;;;;;;5.83;5.33;;;9.10;99.30;;;;;;5091787;28;20536;-78
2021/03/17 01:03:42;;;;;;;5.60;5.20;;;9.10;99.30;;;;;;5040694;28;20234;-78
2021/03/17 01:06:08;;;;;;;5.50;5.00;;;9.10;99.30;;;;;;5091070;28;20268;-77
2021/03/17 01:08:34;;;;;;;6.30;5.30;;;9.10;99.30;;;;;;5091255;28;20225;-77
2021/03/17 01:11:00;;;;;;;5.90;5.40;;;9.10;99.30;;;;;;5091200;28;20402;-77
2021/03/17 01:13:25;;;;;;;5.83;5.13;;;9.10;99.20;;;;;;5092248;28;20175;-78
2021/03/17 01:15:51;;;;;;;7.10;5.60;;;9.00;99.00;;;;;;5091625;28;20399;-78
2021/03/17 01:18:17;;;;;;;6.83;5.30;;;9.10;99.00;;;;;;5095801;28;20198;-78
2021/03/17 01:20:43;;;;;;;6.23;5.07;;;9.00;98.90;;;;;;5095413;28;20695;-78
2021/03/17 01:23:08;;;;;;;5.37;4.97;;;9.00;98.90;;;;;;5076490;28;20282;-78
2021/03/17 01:25:39;;;;;;;8.90;4.90;;;9.00;98.80;;;;;;5077563;28;20200;-77
2021/03/17 01:28:08;;;;;;;6.70;5.40;;;9.00;98.80;;;;;;5094968;28;20464;-77
2021/03/17 01:30:42;;;;;;;6.13;5.13;;;9.00;99.00;;;;;;5095836;28;20881;-77
2021/03/17 01:33:10;;;;;;;5.53;4.73;;;9.00;99.00;;;;;;5095056;28;20394;-78
2021/03/17 01:35:37;;;;;;;5.53;5.07;;;9.00;98.80;;;;;;5095791;28;20402;-77
2021/03/17 01:38:03;;;;;;;5.33;4.90;;;9.00;98.80;;;;;;5095164;28;20377;-77
2021/03/17 01:40:30;;;;;;;5.53;4.60;;;9.00;99.10;;;;;;5095786;28;20406;-77
2021/03/17 01:42:56;;;;;;;5.57;4.73;;;9.00;99.20;;;;;;5095352;28;20417;-77
2021/03/17 01:45:23;;;;;;;6.33;5.43;;;9.00;99.20;;;;;;5095491;28;20470;-77
2021/03/17 01:47:51;;;;;;;6.97;5.50;;;9.00;99.00;;;;;;5094982;28;20399;-78
2021/03/17 01:50:28;;;;;;;6.13;5.53;;;9.00;99.00;;;;;;5095512;28;20405;-77
2021/03/17 01:52:55;;;;;;;6.50;6.00;;;9.00;99.20;;;;;;5094771;28;20473;-78
2021/03/17 01:55:24;;;;;;;6.97;5.83;;;9.00;99.10;;;;;;5077634;28;20385;-77
2021/03/17 01:57:49;;;;;;;5.47;4.83;;;9.00;99.30;;;;;;5094756;28;20395;-78
2021/03/17 02:00:18;;;;;;;5.80;5.20;;;9.00;99.30;;;;;;5095321;28;20413;-77
2021/03/17 02:02:54;;;;;;;6.87;6.17;;;9.00;99.50;;;;;;5077160;28;20175;-77
2021/03/17 02:05:23;;;;;;;5.93;5.43;;;8.90;99.50;;;;;;5095486;28;20425;-77
2021/03/17 02:07:49;;;;;;;8.87;6.53;;;8.90;99.50;;;;;;5094674;28;20493;-79
2021/03/17 02:10:17;;;;;;;5.77;5.20;;;8.90;99.60;;;;;;5095120;28;20904;-77
2021/03/17 02:12:53;;;;;;;6.20;5.60;;;8.90;99.60;;;;;;5077017;28;20448;-77
2021/03/17 02:15:34;;;;;;;6.33;5.10;;;8.90;99.60;;;;;;5094995;28;20419;-77
2021/03/17 02:18:07;;;;;;;6.17;5.63;;;8.90;99.60;;;;;;5094283;28;20796;-77
2021/03/17 02:20:54;;;;;;;5.57;5.10;;;8.90;99.50;;;;;;5094729;28;20813;-77
2021/03/17 02:23:26;;;;;;;6.90;6.07;;;8.90;99.70;;;;;;5094812;28;20406;-78
2021/03/17 02:26:33;;;;;;;6.60;6.00;;;8.90;99.60;;;;;;5094320;28;20446;-78
2021/03/17 02:29:11;;;;;;;6.53;5.30;;;8.90;99.50;;;;;;5094117;28;20735;-77
2021/03/17 02:32:21;;;;;;;7.60;6.80;;;8.90;99.50;;;;;;5094762;28;20877;-77
2021/03/17 02:34:49;;;;;;;9.33;6.40;;;8.90;99.50;;;;;;5055683;28;20409;-77
2021/03/17 02:37:23;;;;;;;7.40;6.70;;;8.90;99.30;;;;;;5094614;28;20402;-77
2021/03/17 02:40:02;;;;;;;8.63;6.90;;;8.90;99.30;;;;;;5076499;28;20402;-77
2021/03/17 02:42:35;;;;;;;7.23;6.57;;;8.90;99.10;;;;;;5094848;28;20897;-77
2021/03/17 02:45:11;;;;;;;7.80;7.10;;;8.90;99.10;;;;;;5093663;28;20862;-77
2021/03/17 02:47:43;;;;;;;9.10;7.30;;;8.90;99.10;;;;;;5093252;28;20966;-77
2021/03/17 02:50:12;;;;;;;9.63;7.13;;;8.90;99.30;;;;;;5075215;28;20433;-77
2021/03/17 02:52:43;;;;;;;8.93;7.87;;;8.90;99.30;;;;;;5093604;28;20747;-77
2021/03/17 02:55:11;;;;;;;12.60;8.33;;;8.90;99.30;;;;;;5075039;28;20520;-77
2021/03/17 02:57:39;;;;;;;8.93;8.03;;;8.90;99.30;;;;;;5093267;28;20501;-78
2021/03/17 03:00:08;;;;;;;8.10;7.30;;;8.90;99.20;;;;;;5074859;28;20554;-77
2021/03/17 03:02:35;;;;;;;9.57;8.00;;;8.90;99.20;;;;;;5093310;28;20886;-77
2021/03/17 03:05:03;;;;;;;8.10;7.30;;;8.90;99.40;;;;;;5092844;28;20793;-77
2021/03/17 03:07:32;;;;;;;9.40;7.30;;;8.90;99.30;;;;;;5092484;28;20498;-77
2021/03/17 03:09:59;;;;;;;9.77;7.97;;;8.80;99.10;;;;;;5093000;28;20412;-77
2021/03/17 03:12:25;;;;;;;8.70;7.90;;;8.80;99.10;;;;;;5093317;28;20525;-77
2021/03/17 03:14:52;;;;;;;10.17;8.67;;;8.80;99.20;;;;;;5093532;28;20493;-77
2021/03/17 03:17:19;;;;;;;9.63;8.70;;;8.80;99.40;;;;;;5093153;28;20493;-77
2021/03/17 03:19:50;;;;;;;8.40;7.50;;;8.80;99.60;;;;;;5093722;28;20391;-77
2021/03/17 03:22:16;;;;;;;8.33;7.43;;;8.70;99.90;;;;;;5092481;28;20482;-76
2021/03/17 03:24:43;;;;;;;7.87;7.10;;;8.60;99.90;;;;;;5093364;28;20461;-77
2021/03/17 03:27:09;;;;;;;7.23;6.33;;;8.60;99.90;;;;;;5092030;28;20451;-76
2021/03/17 03:29:35;;;;;;;7.70;6.60;;;8.50;99.90;;;;;;5093258;28;20369;-77
2021/03/17 03:32:05;;;;;;;8.00;6.20;;;8.50;99.90;;;;;;5092200;28;20413;-77
2021/03/17 03:34:31;;;;;;;7.33;6.63;;;8.50;99.90;;;;;;5074929;28;20422;-77
2021/03/17 03:36:57;;;;;;;7.80;7.00;;;8.50;99.90;;;;;;5075147;28;20404;-78
2021/03/17 03:39:23;;;;;;;7.97;6.90;;;8.40;99.90;;;;;;5092260;28;20384;-77
2021/03/17 03:41:49;;;;;;;6.73;6.13;;;8.40;99.90;;;;;;5092774;28;20183;-77
2021/03/17 03:44:15;;;;;;;6.53;5.97;;;8.40;99.90;;;;;;5091863;28;20226;-77
2021/03/17 03:46:41;;;;;;;5.70;5.20;;;8.50;99.90;;;;;;5074756;28;20390;-77
2021/03/17 03:49:07;;;;;;;6.50;6.00;;;8.40;99.90;;;;;;5092050;28;20749;-77
2021/03/17 03:51:36;;;;;;;5.93;5.43;;;8.30;99.90;;;;;;5074819;28;20437;-77
2021/03/17 03:54:07;;;;;;;7.33;6.60;;;8.30;99.90;;;;;;5091319;28;20422;-77
2021/03/17 03:56:39;;;;;;;7.83;7.03;;;8.30;99.90;;;;;;5092511;28;20495;-77
2021/03/17 03:59:12;;;;;;;8.07;7.27;;;8.20;99.90;;;;;;5092072;28;20777;-78
2021/03/17 04:01:45;;;;;;;8.53;7.73;;;8.30;99.90;;;;;;5092358;28;20379;-77
2021/03/17 04:04:17;;;;;;;8.50;7.70;;;8.30;99.90;;;;;;5091795;28;20427;-78
2021/03/17 04:06:48;;;;;;;8.27;7.57;;;8.30;99.90;;;;;;5092345;28;20936;-78
2021/03/17 04:09:15;;;;;;;8.63;7.80;;;8.30;99.90;;;;;;5091707;28;20449;-79
2021/03/17 04:11:42;;;;;;;8.90;8.03;;;8.40;99.90;;;;;;5092389;28;20408;-79
2021/03/17 04:14:09;;;;;;;9.07;8.23;;;8.30;99.90;;;;;;5073709;28;20401;-78
2021/03/17 04:16:38;;;;;;;9.70;8.80;;;8.40;99.90;;;;;;5074416;28;20384;-78
2021/03/17 04:19:04;;;;;;;9.20;8.20;;;8.40;99.90;;;;;;5073700;28;20531;-79
2021/03/17 04:21:35;;;;;;;9.47;8.57;;;8.40;99.90;;;;;;5092652;28;20750;-79
2021/03/17 04:24:03;;;;;;;9.27;8.40;;;8.40;99.90;;;;;;5091318;28;20433;-80
2021/03/17 04:26:32;;;;;;;10.93;8.87;;;8.30;99.90;;;;;;5074258;28;20383;-77
2021/03/17 04:28:59;;;;;;;9.97;8.97;;;8.30;99.90;;;;;;5073929;28;20409;-78
2021/03/17 04:31:27;;;;;;;9.00;8.07;;;8.30;99.90;;;;;;5074145;28;20451;-77
2021/03/17 04:33:54;;;;;;;9.17;8.27;;;8.30;99.90;;;;;;5074350;28;20375;-75
2021/03/17 04:36:22;;;;;;;8.70;7.60;;;8.30;99.90;;;;;;5073424;28;20383;-75
2021/03/17 04:38:48;;;;;;;8.03;7.23;;;8.30;99.90;;;;;;5091762;28;20437;-75
2021/03/17 04:41:16;;;;;;;8.67;7.77;;;8.30;99.90;;;;;;5091896;28;20387;-75
2021/03/17 04:43:43;;;;;;;9.10;8.30;;;8.30;99.90;;;;;;5092630;28;20401;-75
2021/03/17 04:46:10;;;;;;;8.63;7.73;;;8.30;99.90;;;;;;5091934;28;20480;-75
2021/03/17 04:48:38;;;;;;;8.97;8.03;;;8.20;99.90;;;;;;5092253;28;20407;-75
2021/03/17 04:51:05;;;;;;;8.60;7.33;;;8.30;99.90;;;;;;5083315;28;20501;-75
2021/03/17 04:53:31;;;;;;;8.30;7.50;;;8.30;99.90;;;;;;5076374;28;20456;-75
2021/03/17 04:56:01;;;;;;;8.63;7.73;;;8.20;99.90;;;;;;5076292;28;20393;-75
2021/03/17 04:58:27;;;;;;;10.47;9.47;;;8.10;99.90;;;;;;5076221;28;20413;-75
2021/03/17 05:00:53;;;;;;;8.70;7.80;;;8.10;99.90;;;;;;5076110;28;20424;-75
2021/03/17 05:03:24;;;;;;;9.77;8.07;;;8.10;99.90;;;;;;5075149;28;20372;-75
2021/03/17 05:05:52;;;;;;;8.37;7.57;;;8.10;99.90;;;;;;5058079;28;20474;-75
2021/03/17 05:08:19;;;;;;;7.83;7.03;;;8.20;99.90;;;;;;5075100;28;20710;-75
2021/03/17 05:10:47;;;;;;;8.23;7.43;;;8.20;99.90;;;;;;5066202;28;20388;-75
2021/03/17 05:13:14;;;;;;;8.40;7.30;;;8.20;99.90;;;;;;5095505;28;20756;-75
2021/03/17 05:15:41;;;;;;;7.67;6.93;;;8.20;99.90;;;;;;5096133;28;20406;-75
2021/03/17 05:18:08;;;;;;;8.23;7.03;;;8.30;99.90;;;;;;5095478;28;20503;-75
2021/03/17 05:20:35;;;;;;;7.87;7.10;;;8.20;99.90;;;;;;5078024;28;20398;-75
2021/03/17 05:23:01;;;;;;;7.60;6.90;;;8.20;99.90;;;;;;5095208;28;20412;-75
2021/03/17 05:25:28;;;;;;;8.10;7.30;;;8.10;99.90;;;;;;5095909;28;20502;-75
2021/03/17 05:27:57;;;;;;;7.83;7.13;;;8.10;99.90;;;;;;5077510;28;20856;-75
2021/03/17 05:30:26;;;;;;;7.33;6.70;;;8.10;99.90;;;;;;5095341;28;20424;-78
2021/03/17 05:32:53;;;;;;;7.93;6.90;;;8.20;99.90;;;;;;5077721;28;20763;-78
2021/03/17 05:35:19;;;;;;;7.63;7.03;;;8.20;99.90;;;;;;5077232;28;20368;-78
2021/03/17 05:37:46;;;;;;;8.20;7.47;;;8.20;99.90;;;;;;5095394;28;20482;-78
2021/03/17 05:40:14;;;;;;;8.27;7.63;;;8.20;99.90;;;;;;5076998;28;20171;-79
2021/03/17 05:42:41;;;;;;;8.60;7.90;;;8.20;99.90;;;;;;5095482;28;20852;-78
2021/03/17 05:45:15;;;;;;;8.30;7.50;;;8.20;99.90;;;;;;5075964;28;20468;-79
2021/03/17 05:47:46;;;;;;;8.70;8.00;;;8.20;99.90;;;;;;5094975;28;20424;-79
2021/03/17 05:50:17;;;;;;;9.03;8.17;;;8.20;99.90;;;;;;5075652;28;20425;-79
2021/03/17 05:52:43;;;;;;;8.50;7.80;;;8.20;99.90;;;;;;5074539;28;20461;-79
2021/03/17 05:55:11;;;;;;;9.80;9.00;;;8.20;99.90;;;;;;5082771;28;20422;-78
2021/03/17 05:57:37;;;;;;;6.67;6.03;;;8.20;99.90;;;;;;5060095;28;20527;-78
2021/03/17 06:00:09;;;;;;;10.03;9.23;;;8.20;99.90;;;;;;5094777;28;20412;-80
2021/03/17 06:02:39;;;;;;;9.20;8.40;;;8.20;99.90;;;;;;5094337;28;20870;-78
2021/03/17 06:05:10;;;;;;;8.30;7.60;;;8.20;99.90;;;;;;5094130;28;20457;-79
2021/03/17 06:07:51;;;;;;;7.10;6.50;;;8.10;99.90;;;;;;5094700;28;20758;-78
2021/03/17 06:10:18;;;;;;;8.80;8.10;;;8.10;99.90;;;;;;5052727;28;20421;-79
2021/03/17 06:12:47;;;;;;;7.53;6.83;;;8.00;99.90;;;;;;5059519;28;20445;-78
2021/03/17 06:15:15;;;;;;;8.60;7.90;;;7.90;99.90;;;;;;5064880;28;20417;-79
2021/03/17 06:17:43;;;;;;;8.40;7.60;;;7.80;99.90;;;;;;5094677;28;20391;-78
2021/03/17 06:20:11;;;;;;;8.77;7.97;;;7.70;99.90;;;;;;5075148;28;20392;-79
2021/03/17 06:22:37;;;;;;;7.43;6.73;;;7.70;99.90;;;;;;5093759;28;20973;-78
2021/03/17 06:25:07;;;;;;;8.03;6.90;;;7.70;99.90;;;;;;5093674;28;20596;-79
2021/03/17 06:27:36;;;;;;;8.83;8.13;;;7.60;99.90;;;;;;5076064;28;20732;-78
2021/03/17 06:30:04;;;;;;;8.70;8.00;;;7.60;99.90;;;;;;5093342;28;20890;-78
2021/03/17 06:32:32;;;;;;;8.80;7.63;;;7.70;99.90;;;;;;5087359;28;20376;-79
2021/03/17 06:34:58;;;;;;;9.13;8.33;;;7.70;99.90;;;;;;5093566;28;20770;-78
2021/03/17 06:37:39;;;;;;;7.37;6.67;;;7.70;99.90;;;;;;5093291;28;20728;-79
2021/03/17 06:40:30;;;;;;;8.53;7.83;;;7.70;99.90;;;;;;5073381;28;20401;-79
2021/03/17 06:43:17;;;;;;;7.40;6.63;;;7.70;99.90;;;;;;5078563;28;20453;-79
2021/03/17 06:45:49;;;;;;;7.87;7.10;;;7.70;99.90;;;;;;5077247;28;20430;-78
2021/03/17 06:48:18;;;;;;;5.80;5.37;;;7.60;99.90;;;;;;5087320;28;20362;-79
2021/03/17 06:50:44;;;;;;;6.70;6.20;;;7.70;99.90;;;;;;5081115;28;20383;-79
2021/03/17 06:53:10;;;;;;;7.10;6.40;;;7.70;99.90;;;;;;5081016;28;20432;-79
2021/03/17 06:55:36;;;;;;;6.40;5.80;;;7.70;99.90;;;;;;5089685;28;20424;-79
2021/03/17 06:58:01;;;;;;;5.70;5.20;;;7.70;99.70;;;;;;5093612;28;20192;-79
2021/03/17 07:00:31;;;;;;;9.77;8.87;;;7.60;99.70;;;;;;5075027;28;20184;-79
2021/03/17 07:03:11;;;;;;;7.60;6.90;;;7.70;99.90;;;;;;5075796;28;20173;-79
2021/03/17 07:05:42;;;;;;;9.20;8.30;;;7.60;99.90;;;;;;5075271;28;20448;-79
2021/03/17 07:08:26;;;;;;;6.63;5.77;;;7.60;99.70;;;;;;5074998;28;20412;-80
2021/03/17 07:10:59;;;;;;;6.57;5.87;;;7.60;99.50;;;;;;5090377;28;20387;-79
2021/03/17 07:13:27;;;;;;;5.90;5.50;;;7.50;99.90;;;;;;5069377;28;20401;-80
2021/03/17 07:15:54;;;;;;;7.37;6.30;;;7.60;99.70;;;;;;5047980;28;20789;-78
2021/03/17 07:18:22;;;;;;;5.63;5.00;;;7.70;99.90;;;;;;5053963;28;20419;-78
2021/03/17 07:20:53;;;;;;;6.13;5.47;;;7.70;99.70;;;;;;5090237;28;21005;-78
2021/03/17 07:23:39;;;;;;;8.93;5.00;;;7.80;99.60;;;;;;5070136;28;20765;-73
2021/03/17 07:26:22;;;;;;;7.80;5.50;;;7.80;99.10;;;;;;5081395;28;20453;-73
2021/03/17 07:28:51;;;;;;;5.43;5.00;;;7.90;99.00;;;;;;5084629;28;20421;-74
2021/03/17 07:31:21;;;;;;;7.07;4.90;;;7.90;98.50;;;;;;5072714;28;20902;-75
2021/03/17 07:33:47;;;;;;;4.67;4.37;;;7.90;98.40;;;;;;5075818;28;20389;-75
2021/03/17 07:36:36;;;;;;;4.80;4.17;;;7.80;98.60;;;;;;5082295;28;20417;-74
2021/03/17 07:39:10;;;;;;;6.40;5.87;;;7.80;98.50;;;;;;5088621;28;20408;-75
2021/03/17 07:41:37;;;;;;;6.77;4.83;;;7.90;98.00;;;;;;5091647;28;20524;-74
2021/03/17 07:44:05;;;;;;;6.20;4.57;;;8.00;98.20;;;;;;5090295;28;20427;-74
2021/03/17 07:46:32;;;;;;;6.03;5.50;;;8.00;98.40;;;;;;5085784;28;20475;-74
2021/03/17 07:48:59;;;;;;;4.80;4.47;;;8.10;98.30;;;;;;5092825;28;20865;-74
2021/03/17 07:51:25;;;;;;;4.10;3.73;;;8.10;98.10;;;;;;5087551;28;20419;-74
2021/03/17 07:53:54;;;;;;;4.23;3.80;;;8.10;97.80;;;;;;5081971;28;20383;-73
2021/03/17 07:56:21;;;;;;;4.40;4.00;;;8.10;97.80;;;;;;5077672;28;20429;-73
2021/03/17 07:58:56;;;;;;;3.27;3.07;;;8.10;98.00;;;;;;5078259;28;20442;-73
2021/03/17 08:01:22;;;;;;;7.00;4.83;;;8.10;97.40;;;;;;5072227;28;20405;-73
2021/03/17 08:03:50;;;;;;;5.07;4.20;;;8.10;97.80;;;;;;5086754;28;20734;-75
2021/03/17 08:06:20;;;;;;;9.17;6.30;;;8.00;98.30;;;;;;5073163;28;20577;-73
2021/03/17 08:08:47;;;;;;;7.60;6.23;;;8.00;98.40;;;;;;5078542;28;20445;-73
2021/03/17 08:11:18;;;;;;;8.60;7.80;;;8.00;98.60;;;;;;5073225;28;20418;-73
2021/03/17 08:13:47;;;;;;;6.73;6.10;;;8.10;99.40;;;;;;5073902;28;20414;-73
2021/03/17 08:16:18;;;;;;;5.67;4.93;;;8.10;99.30;;;;;;5092228;28;20419;-74
2021/03/17 08:18:45;;;;;;;6.67;4.77;;;8.10;98.80;;;;;;5060098;28;20404;-73
2021/03/17 08:21:12;;;;;;;6.20;5.00;;;8.20;98.80;;;;;;5073142;28;20447;-74
2021/03/17 08:23:44;;;;;;;4.33;3.93;;;8.20;98.60;;;;;;5092564;28;20419;-74
2021/03/17 08:26:20;;;;;;;5.53;4.33;;;8.20;98.80;;;;;;5091794;28;20442;-74
2021/03/17 08:28:56;;;;;;;4.17;3.70;;;8.20;99.00;;;;;;5092976;28;20396;-73
2021/03/17 08:31:37;;;;;;;4.57;4.07;;;8.30;98.20;;;;;;5065957;28;20402;-73
2021/03/17 08:34:18;;;;;;;4.93;4.53;;;8.30;98.30;;;;;;5092681;28;20430;-73
2021/03/17 08:36:51;;;;;;;4.83;4.53;;;8.20;98.50;;;;;;5091924;28;20387;-75
2021/03/17 08:39:29;;;;;;;5.23;4.83;;;8.20;98.60;;;;;;5090298;28;20422;-75
2021/03/17 08:42:19;;;;;;;5.53;5.10;;;8.30;99.10;;;;;;5092466;28;20375;-75
2021/03/17 08:44:47;;;;;;;7.00;6.20;;;8.40;99.60;;;;;;5081312;28;20472;-75
2021/03/17 08:47:16;;;;;;;6.17;5.57;;;8.40;99.70;;;;;;5087842;28;20461;-75
2021/03/17 08:49:44;;;;;;;6.80;4.60;;;8.50;99.30;;;;;;5074818;28;20426;-75
2021/03/17 08:52:15;;;;;;;4.53;4.10;;;8.40;98.40;;;;;;5087024;28;20413;-75
2021/03/17 08:55:00;;;;;;;5.40;3.90;;;8.40;98.70;;;;;;5086165;28;20737;-74
2021/03/17 08:58:06;;;;;;;4.87;4.53;;;8.40;99.20;;;;;;5091350;28;20417;-75
2021/03/17 09:00:57;;;;;;;4.53;3.83;;;8.40;99.70;;;;;;5071740;28;20414;-75
2021/03/17 09:03:33;;;;;;;4.93;3.97;;;8.40;99.30;;;;;;5088025;28;20460;-75
2021/03/17 09:06:13;;;;;;;3.50;3.20;;;8.50;98.20;;;;;;5076250;28;20449;-74
2021/03/17 09:08:57;;;;;;;5.63;4.30;;;8.50;98.50;;;;;;5082024;28;20395;-74
2021/03/17 09:11:29;;;;;;;3.27;3.03;;;8.50;99.00;;;;;;5091014;28;20438;-75
2021/03/17 09:13:58;;;;;;;4.50;4.10;;;8.50;99.00;;;;;;5091201;28;20424;-74
2021/03/17 09:16:24;;;;;;;4.07;3.53;;;8.50;97.50;;;;;;5073401;28;20421;-75
2021/03/17 09:19:05;;;;;;;5.73;3.40;;;8.50;97.00;;;;;;5091591;28;20487;-75
2021/03/17 09:21:45;;;;;;;5.47;4.87;;;8.60;97.20;;;;;;5056640;28;20407;-75
2021/03/17 09:24:34;;;;;;;7.23;4.60;;;8.60;98.10;;;;;;5091418;28;20516;-75
2021/03/17 09:27:07;;;;;;;5.57;4.43;;;8.70;98.70;;;;;;5070737;28;20440;-75
2021/03/17 09:29:35;;;;;;;8.03;5.30;;;8.70;98.40;;;;;;5087109;28;20800;-75
2021/03/17 09:32:01;;;;;;;6.60;6.00;;;8.70;97.70;;;;;;5092423;28;20401;-75
2021/03/17 09:34:31;;;;;;;8.07;6.30;;;8.70;97.60;;;;;;5091641;28;20434;-75
2021/03/17 09:37:05;;;;;;;7.90;7.20;;;8.70;97.60;;;;;;5092726;28;20394;-75
2021/03/17 09:39:32;;;;;;;8.50;7.90;;;8.70;97.80;;;;;;5095147;28;20410;-75
2021/03/17 09:41:58;;;;;;;8.73;7.23;;;8.70;96.90;;;;;;5095647;28;20408;-75
2021/03/17 09:44:24;;;;;;;6.57;5.30;;;8.60;96.70;;;;;;5094765;28;20529;-75
2021/03/17 09:46:55;;;;;;;5.90;5.40;;;8.70;96.90;;;;;;5095527;28;20406;-75
2021/03/17 09:49:23;;;;;;;6.37;5.50;;;8.70;97.10;;;;;;5095026;28;20567;-75
2021/03/17 09:52:01;;;;;;;6.83;5.60;;;8.70;96.70;;;;;;5095211;28;20546;-75
2021/03/17 09:54:29;;;;;;;8.70;5.70;;;8.60;96.40;;;;;;5095129;28;20479;-75
2021/03/17 09:56:57;;;;;;;8.20;5.70;;;8.70;95.90;;;;;;5095315;28;20432;-75
2021/03/17 09:59:28;;;;;;;6.40;5.70;;;8.70;96.10;;;;;;5094787;28;20420;-74
2021/03/17 10:02:06;;;;;;;6.30;5.10;;;8.60;96.80;;;;;;5095384;28;20407;-74
2021/03/17 10:04:43;;;;;;;6.27;5.70;;;8.60;96.70;;;;;;5094555;28;20446;-75
2021/03/17 10:07:15;;;;;;;8.20;5.47;;;8.60;97.20;;;;;;5077040;28;20385;-74
2021/03/17 10:09:43;;;;;;;5.53;5.03;;;8.60;97.60;;;;;;5095138;28;20402;-74
2021/03/17 10:12:28;;;;;;;6.03;5.40;;;8.70;96.70;;;;;;5095133;28;20411;-74
2021/03/17 10:15:01;;;;;;;5.40;5.03;;;8.80;96.30;;;;;;5095184;28;20400;-74
2021/03/17 10:17:29;;;;;;;4.93;4.20;;;8.80;96.20;;;;;;5094418;28;20417;-75
2021/03/17 10:20:00;;;;;;;5.70;4.90;;;8.80;96.40;;;;;;5095226;28;20405;-74
2021/03/17 10:22:28;;;;;;;5.97;4.83;;;8.80;96.50;;;;;;5094362;28;20492;-75
2021/03/17 10:24:59;;;;;;;7.90;3.93;;;8.70;96.90;;;;;;5094916;28;20510;-74
2021/03/17 10:27:34;;;;;;;5.13;4.23;;;8.70;96.70;;;;;;5094237;28;20426;-74
2021/03/17 10:30:05;;;;;;;5.70;4.60;;;8.60;96.70;;;;;;5094808;28;20408;-74
2021/03/17 10:32:34;;;;;;;10.23;6.73;;;8.60;97.10;;;;;;5094465;28;20397;-74
2021/03/17 10:35:04;;;;;;;5.43;4.23;;;8.50;97.50;;;;;;5094634;28;20433;-74
2021/03/17 10:37:30;;;;;;;6.20;5.60;;;8.50;98.10;;;;;;5094129;28;20791;-74
2021/03/17 10:40:07;;;;;;;6.67;6.10;;;8.50;98.70;;;;;;5094580;28;20964;-74
2021/03/17 10:42:33;;;;;;;6.40;5.80;;;8.60;98.90;;;;;;5093991;28;20415;-74
2021/03/17 10:45:22;;;;;;;6.27;5.73;;;8.70;99.60;;;;;;5094198;28;20458;-74
2021/03/17 10:47:49;;;;;;;5.70;5.20;;;8.70;99.90;;;;;;5094170;28;20680;-74
2021/03/17 10:50:31;;;;;;;5.80;4.80;;;8.90;99.10;;;;;;5094157;28;20910;-74
2021/03/17 10:52:57;;;;;;;5.10;4.27;;;9.00;97.70;;;;;;5094400;28;20473;-75
2021/03/17 10:55:28;;;;;;;5.47;3.57;;;9.10;97.20;;;;;;5075432;28;20486;-75
2021/03/17 10:58:34;;;;;;;4.20;3.80;;;8.90;95.60;;;;;;5093969;28;20437;-75
2021/03/17 11:01:02;;;;;;;4.40;3.97;;;9.10;96.10;;;;;;5088837;28;20422;-75
2021/03/17 11:03:41;;;;;;;6.03;5.43;;;9.10;94.60;;;;;;5093176;28;20430;-75
2021/03/17 11:06:14;;;;;;;4.90;4.20;;;9.20;93.40;;;;;;5094067;28;20446;-75
2021/03/17 11:08:41;;;;;;;4.93;4.43;;;9.30;91.70;;;;;;5093356;28;20432;-75
2021/03/17 11:11:09;;;;;;;4.97;3.87;;;9.30;93.90;;;;;;5093934;28;20754;-75
2021/03/17 11:13:40;;;;;;;5.57;3.90;;;9.30;92.90;;;;;;5093299;28;20394;-75
2021/03/17 11:16:09;;;;;;;3.13;2.87;;;9.10;91.90;;;;;;5094048;28;20399;-74
2021/03/17 11:18:44;;;;;;;8.47;3.10;;;8.90;90.20;;;;;;5093242;28;20394;-74
2021/03/17 11:21:36;;;;;;;5.17;3.77;;;8.80;90.50;;;;;;5093857;28;20422;-74
2021/03/17 11:24:04;;;;;;;6.37;5.73;;;8.80;91.00;;;;;;5092793;28;20425;-74
2021/03/17 11:26:30;;;;;;;4.10;3.20;;;9.00;90.50;;;;;;5092227;28;20454;-75
2021/03/17 11:28:58;;;;;;;5.13;4.73;;;9.10;91.90;;;;;;5093337;28;20399;-74
2021/03/17 11:31:30;;;;;;;3.60;3.40;;;9.00;91.50;;;;;;5092678;28;20224;-75
2021/03/17 11:33:57;;;;;;;4.23;3.87;;;9.00;90.30;;;;;;5093336;28;20478;-74
2021/03/17 11:36:25;;;;;;;4.17;3.87;;;9.00;90.00;;;;;;5092737;28;20425;-75
2021/03/17 11:38:51;;;;;;;3.93;3.23;;;9.00;90.00;;;;;;5093442;28;20394;-75
2021/03/17 11:41:18;;;;;;;3.97;3.67;;;9.00;90.00;;;;;;5093389;28;20398;-75
2021/03/17 11:43:44;;;;;;;3.13;2.93;;;9.00;90.10;;;;;;5092461;28;20395;-75
2021/03/17 11:46:10;;;;;;;3.50;3.20;;;8.90;89.70;;;;;;5093127;28;20495;-75
2021/03/17 11:48:36;;;;;;;3.57;3.37;;;8.90;90.20;;;;;;5074521;28;20393;-75
2021/03/17 11:51:05;;;;;;;15.43;4.23;;;8.80;90.30;;;;;;5093101;28;20177;-75
2021/03/17 11:53:32;;;;;;;4.30;4.00;;;8.80;87.60;;;;;;5092371;28;20602;-75
2021/03/17 11:55:58;;;;;;;6.80;3.60;;;8.70;89.50;;;;;;5093364;28;20400;-75
2021/03/17 11:58:24;;;;;;;4.43;3.27;;;8.80;89.50;;;;;;5092585;28;20406;-75
2021/03/17 12:00:49;;;;;;;4.37;4.07;;;8.80;90.20;;;;;;5092856;28;20409;-75
2021/03/17 12:03:15;;;;;;;4.17;3.80;;;8.80;88.50;;;;;;5093060;28;20600;-75
2021/03/17 12:05:42;;;;;;;3.83;3.53;;;8.80;89.30;;;;;;5092316;28;20204;-75
2021/03/17 12:08:08;;;;;;;3.43;3.13;;;8.90;90.00;;;;;;5093215;28;20571;-75
2021/03/17 12:10:34;;;;;;;3.87;3.60;;;8.80;90.30;;;;;;5092309;28;20400;-75
2021/03/17 12:13:00;;;;;;;3.87;3.57;;;8.50;90.40;;;;;;5092708;28;20402;-75
2021/03/17 12:15:27;;;;;;;6.37;4.80;;;8.50;91.10;;;;;;5092229;28;20174;-75
2021/03/17 12:17:53;;;;;;;5.63;4.30;;;8.50;90.70;;;;;;5074763;28;20506;-75
2021/03/17 12:20:22;;;;;;;4.23;3.90;;;8.60;90.20;;;;;;5092807;28;20441;-75
2021/03/17 12:22:48;;;;;;;6.30;3.93;;;8.60;90.40;;;;;;5074190;28;20356;-75
2021/03/17 12:25:14;;;;;;;7.40;4.43;;;8.60;90.50;;;;;;5092968;28;20828;-75
2021/03/17 12:27:41;;;;;;;3.57;3.07;;;8.70;91.20;;;;;;5074316;28;20437;-75
2021/03/17 12:30:13;;;;;;;5.30;3.53;;;8.80;90.90;;;;;;5092717;28;20410;-75
2021/03/17 12:32:40;;;;;;;3.40;3.10;;;8.90;89.50;;;;;;5092074;28;20408;-75
2021/03/17 12:35:08;;;;;;;8.87;3.93;;;9.00;89.70;;;;;;5092763;28;20410;-75
2021/03/17 12:37:34;;;;;;;4.30;4.00;;;9.00;90.30;;;;;;5092136;28;20399;-75
2021/03/17 12:40:00;;;;;;;4.90;4.60;;;9.00;89.20;;;;;;5092619;28;20373;-75
2021/03/17 12:42:25;;;;;;;4.70;4.43;;;9.00;89.90;;;;;;5073501;28;20379;-76
2021/03/17 12:44:51;;;;;;;4.57;4.17;;;9.00;89.90;;;;;;5074198;28;20216;-75
2021/03/17 12:47:17;;;;;;;6.00;4.70;;;9.00;89.90;;;;;;5092541;28;20172;-75
2021/03/17 12:49:43;;;;;;;6.33;4.40;;;8.90;89.90;;;;;;5091892;28;20180;-75
2021/03/17 12:52:09;;;;;;;7.30;6.63;;;8.60;90.20;;;;;;5092535;28;20174;-75
2021/03/17 12:54:35;;;;;;;6.83;4.80;;;8.50;91.00;;;;;;5074067;28;20413;-75
2021/03/17 12:57:01;;;;;;;7.73;6.23;;;8.60;90.70;;;;;;5092595;28;20751;-75
2021/03/17 12:59:27;;;;;;;7.60;6.50;;;8.70;90.20;;;;;;5091808;28;20583;-76
2021/03/17 13:01:53;;;;;;;5.67;4.53;;;8.80;90.40;;;;;;5092388;28;20437;-75
2021/03/17 13:04:19;;;;;;;6.60;5.60;;;8.80;90.60;;;;;;5092371;28;20205;-75
2021/03/17 13:06:44;;;;;;;7.77;6.27;;;8.80;90.80;;;;;;5091827;28;20196;-75
2021/03/17 13:09:10;;;;;;;7.13;6.17;;;8.90;91.40;;;;;;5074354;28;20171;-75
2021/03/17 13:11:37;;;;;;;7.80;6.23;;;9.10;92.00;;;;;;5091688;28;20548;-75